sensor_id;sensor_type;location;lat;lon;timestamp;pressure;altitude;pressure_sealevel;temperature;humidity
4814;BME280;15375;48.540;9.268;2023-07-08T00:01:54;97403.69;;;23.75;38.35
4814;BME280;15375;48.540;9.268;2023-07-08T00:04:20;97397.91;;;23.84;38.54
4814;BME280;15375;48.540;9.268;2023-07-08T00:06:46;97415.13;;;23.88;37.88
4814;BME280;15375;48.540;9.268;2023-07-08T00:09:11;97387.50;;;23.84;37.81
4814;BME280;15375;48.540;9.268;2023-07-08T00:11:37;97396.38;;;23.88;38.09
4814;BME280;15375;48.540;9.268;2023-07-08T00:14:02;97380.41;;;23.78;38.04
4814;BME280;15375;48.540;9.268;2023-07-08T00:16:28;97367.75;;;23.71;38.22
4814;BME280;15375;48.540;9.268;2023-07-08T00:18:53;97380.91;;;23.87;38.14
4814;BME280;15375;48.540;9.268;2023-07-08T00:21:18;97385.97;;;23.94;38.07
4814;BME280;15375;48.540;9.268;2023-07-08T00:23:45;97372.06;;;23.83;38.31
4814;BME280;15375;48.540;9.268;2023-07-08T00:28:49;97383.44;;;23.74;38.74
4814;BME280;15375;48.540;9.268;2023-07-08T00:31:14;97392.06;;;23.71;39.32
4814;BME280;15375;48.540;9.268;2023-07-08T00:33:40;97389.75;;;23.58;40.55
4814;BME280;15375;48.540;9.268;2023-07-08T00:36:11;97387.97;;;23.55;39.87
4814;BME280;15375;48.540;9.268;2023-07-08T00:38:37;97384.41;;;23.55;40.25
4814;BME280;15375;48.540;9.268;2023-07-08T00:43:45;97393.56;;;23.61;40.37
4814;BME280;15375;48.540;9.268;2023-07-08T00:46:16;97395.31;;;23.69;40.03
4814;BME280;15375;48.540;9.268;2023-07-08T00:48:45;97373.81;;;23.59;39.89
4814;BME280;15375;48.540;9.268;2023-07-08T00:51:11;97379.13;;;23.68;39.99
4814;BME280;15375;48.540;9.268;2023-07-08T00:53:38;97394.34;;;23.78;39.79
4814;BME280;15375;48.540;9.268;2023-07-08T00:56:08;97386.50;;;23.76;39.87
4814;BME280;15375;48.540;9.268;2023-07-08T00:58:40;97392.53;;;23.64;40.15
4814;BME280;15375;48.540;9.268;2023-07-08T01:01:07;97381.69;;;23.71;39.86
4814;BME280;15375;48.540;9.268;2023-07-08T01:03:38;97396.63;;;23.74;39.88
4814;BME280;15375;48.540;9.268;2023-07-08T01:06:08;97390.50;;;23.64;40.17
4814;BME280;15375;48.540;9.268;2023-07-08T01:08:36;97384.94;;;23.59;40.02
4814;BME280;15375;48.540;9.268;2023-07-08T01:11:03;97377.81;;;23.46;40.54
4814;BME280;15375;48.540;9.268;2023-07-08T01:13:34;97406.44;;;23.53;40.36
4814;BME280;15375;48.540;9.268;2023-07-08T01:16:01;97390.28;;;23.73;39.90
4814;BME280;15375;48.540;9.268;2023-07-08T01:18:26;97388.75;;;23.72;39.90
4814;BME280;15375;48.540;9.268;2023-07-08T01:20:52;97396.34;;;23.77;40.01
4814;BME280;15375;48.540;9.268;2023-07-08T01:23:20;97380.41;;;24.00;39.50
4814;BME280;15375;48.540;9.268;2023-07-08T01:25:47;97385.22;;;23.99;39.74
4814;BME280;15375;48.540;9.268;2023-07-08T01:28:13;97380.19;;;23.98;39.67
4814;BME280;15375;48.540;9.268;2023-07-08T01:30:41;97385.00;;;23.86;39.86
4814;BME280;15375;48.540;9.268;2023-07-08T01:33:14;97375.31;;;23.65;40.47
4814;BME280;15375;48.540;9.268;2023-07-08T01:35:41;97374.03;;;23.49;40.46
4814;BME280;15375;48.540;9.268;2023-07-08T01:38:10;97394.75;;;23.37;41.98
4814;BME280;15375;48.540;9.268;2023-07-08T01:40:37;97408.84;;;23.23;43.10
4814;BME280;15375;48.540;9.268;2023-07-08T01:43:05;97402.59;;;22.85;45.58
4814;BME280;15375;48.540;9.268;2023-07-08T01:45:38;97409.72;;;22.61;47.03
4814;BME280;15375;48.540;9.268;2023-07-08T01:48:13;97408.75;;;22.27;47.26
4814;BME280;15375;48.540;9.268;2023-07-08T01:50:46;97411.84;;;22.03;47.59
4814;BME280;15375;48.540;9.268;2023-07-08T01:53:26;97402.78;;;21.57;47.87
4814;BME280;15375;48.540;9.268;2023-07-08T01:55:52;97393.81;;;21.42;47.82
4814;BME280;15375;48.540;9.268;2023-07-08T01:58:17;97385.13;;;21.34;46.58
4814;BME280;15375;48.540;9.268;2023-07-08T02:00:43;97400.00;;;21.57;48.15
4814;BME280;15375;48.540;9.268;2023-07-08T02:03:08;97388.28;;;21.47;47.77
4814;BME280;15375;48.540;9.268;2023-07-08T02:05:35;97395.25;;;21.37;48.40
4814;BME280;15375;48.540;9.268;2023-07-08T02:08:00;97399.91;;;21.06;49.92
4814;BME280;15375;48.540;9.268;2023-07-08T02:10:26;97398.84;;;21.03;50.28
4814;BME280;15375;48.540;9.268;2023-07-08T02:12:51;97404.56;;;20.79;51.15
4814;BME280;15375;48.540;9.268;2023-07-08T02:15:17;97390.38;;;20.52;50.41
4814;BME280;15375;48.540;9.268;2023-07-08T02:17:42;97400.78;;;20.42;50.57
4814;BME280;15375;48.540;9.268;2023-07-08T02:20:07;97403.53;;;20.42;51.56
4814;BME280;15375;48.540;9.268;2023-07-08T02:22:33;97403.28;;;20.40;51.13
4814;BME280;15375;48.540;9.268;2023-07-08T02:24:59;97404.63;;;20.15;53.06
4814;BME280;15375;48.540;9.268;2023-07-08T02:27:24;97389.28;;;20.29;50.63
4814;BME280;15375;48.540;9.268;2023-07-08T02:29:50;97413.94;;;20.47;50.95
4814;BME280;15375;48.540;9.268;2023-07-08T02:32:15;97418.44;;;20.45;51.02
4814;BME280;15375;48.540;9.268;2023-07-08T02:34:40;97421.16;;;20.39;50.99
4814;BME280;15375;48.540;9.268;2023-07-08T02:37:06;97421.25;;;20.30;50.66
4814;BME280;15375;48.540;9.268;2023-07-08T02:39:32;97447.72;;;20.31;50.76
4814;BME280;15375;48.540;9.268;2023-07-08T02:41:57;97457.94;;;20.25;50.93
4814;BME280;15375;48.540;9.268;2023-07-08T02:44:23;97439.13;;;20.29;50.71
4814;BME280;15375;48.540;9.268;2023-07-08T02:46:48;97439.13;;;20.29;51.64
4814;BME280;15375;48.540;9.268;2023-07-08T02:49:13;97460.09;;;20.21;52.03
4814;BME280;15375;48.540;9.268;2023-07-08T02:51:39;97448.44;;;20.17;52.21
4814;BME280;15375;48.540;9.268;2023-07-08T02:54:04;97448.00;;;20.04;54.80
4814;BME280;15375;48.540;9.268;2023-07-08T02:56:29;97460.75;;;19.87;56.09
4814;BME280;15375;48.540;9.268;2023-07-08T02:58:55;97450.63;;;19.69;55.51
4814;BME280;15375;48.540;9.268;2023-07-08T03:01:20;97454.03;;;19.64;55.56
4814;BME280;15375;48.540;9.268;2023-07-08T03:03:46;97460.72;;;19.57;55.70
4814;BME280;15375;48.540;9.268;2023-07-08T03:06:12;97463.50;;;19.57;55.76
4814;BME280;15375;48.540;9.268;2023-07-08T03:08:38;97453.72;;;19.47;55.35
4814;BME280;15375;48.540;9.268;2023-07-08T03:11:07;97464.91;;;19.53;55.52
4814;BME280;15375;48.540;9.268;2023-07-08T03:13:33;97470.84;;;19.60;55.65
4814;BME280;15375;48.540;9.268;2023-07-08T03:16:00;97486.00;;;19.50;59.02
4814;BME280;15375;48.540;9.268;2023-07-08T03:18:26;97474.97;;;19.41;56.84
4814;BME280;15375;48.540;9.268;2023-07-08T03:20:52;97483.16;;;19.36;57.87
4814;BME280;15375;48.540;9.268;2023-07-08T03:23:18;97451.06;;;19.29;56.12
4814;BME280;15375;48.540;9.268;2023-07-08T03:25:44;97464.25;;;19.34;57.08
4814;BME280;15375;48.540;9.268;2023-07-08T03:28:10;97457.22;;;19.33;59.46
4814;BME280;15375;48.540;9.268;2023-07-08T03:30:41;97451.06;;;19.29;61.34
4814;BME280;15375;48.540;9.268;2023-07-08T03:33:07;97462.91;;;19.30;62.51
4814;BME280;15375;48.540;9.268;2023-07-08T03:35:32;97463.63;;;19.16;62.55
4814;BME280;15375;48.540;9.268;2023-07-08T03:37:58;97455.97;;;19.10;62.92
4814;BME280;15375;48.540;9.268;2023-07-08T03:40:23;97432.94;;;18.90;61.78
4814;BME280;15375;48.540;9.268;2023-07-08T03:42:49;97451.63;;;18.95;62.53
4814;BME280;15375;48.540;9.268;2023-07-08T03:45:14;97455.31;;;18.92;62.45
4814;BME280;15375;48.540;9.268;2023-07-08T03:47:39;97450.91;;;19.09;61.24
4814;BME280;15375;48.540;9.268;2023-07-08T03:50:05;97453.50;;;19.13;61.53
4814;BME280;15375;48.540;9.268;2023-07-08T03:52:32;97445.56;;;19.05;61.79
4814;BME280;15375;48.540;9.268;2023-07-08T03:54:57;97446.47;;;19.26;61.30
4814;BME280;15375;48.540;9.268;2023-07-08T03:57:22;97436.66;;;19.49;62.80
4814;BME280;15375;48.540;9.268;2023-07-08T03:59:48;97425.72;;;19.31;62.71
4814;BME280;15375;48.540;9.268;2023-07-08T04:02:13;97432.97;;;19.28;64.15
4814;BME280;15375;48.540;9.268;2023-07-08T04:04:38;97441.44;;;19.48;63.78
4814;BME280;15375;48.540;9.268;2023-07-08T04:07:05;97446.63;;;19.70;64.09
4814;BME280;15375;48.540;9.268;2023-07-08T04:09:30;97440.91;;;19.88;66.11
4814;BME280;15375;48.540;9.268;2023-07-08T04:11:56;97446.44;;;20.17;66.17
4814;BME280;15375;48.540;9.268;2023-07-08T04:14:21;97447.13;;;20.12;64.39
4814;BME280;15375;48.540;9.268;2023-07-08T04:19:15;97451.22;;;19.88;64.08
4814;BME280;15375;48.540;9.268;2023-07-08T04:21:42;97454.38;;;20.10;61.05
4814;BME280;15375;48.540;9.268;2023-07-08T04:24:12;97449.69;;;20.45;59.59
4814;BME280;15375;48.540;9.268;2023-07-08T04:26:38;97453.13;;;21.24;58.99
4814;BME280;15375;48.540;9.268;2023-07-08T04:29:16;97446.53;;;22.13;56.74
4814;BME280;15375;48.540;9.268;2023-07-08T04:31:41;97458.75;;;22.58;52.69
4814;BME280;15375;48.540;9.268;2023-07-08T04:34:08;97460.13;;;22.37;53.90
4814;BME280;15375;48.540;9.268;2023-07-08T04:36:34;97450.56;;;22.12;51.63
4814;BME280;15375;48.540;9.268;2023-07-08T04:39:00;97460.84;;;22.06;54.71
4814;BME280;15375;48.540;9.268;2023-07-08T04:41:26;97453.94;;;21.96;55.92
4814;BME280;15375;48.540;9.268;2023-07-08T04:43:54;97434.69;;;21.67;57.37
4814;BME280;15375;48.540;9.268;2023-07-08T04:46:35;97444.16;;;21.81;56.25
4814;BME280;15375;48.540;9.268;2023-07-08T04:49:02;97462.44;;;21.87;55.68
4814;BME280;15375;48.540;9.268;2023-07-08T04:51:28;97463.31;;;21.79;54.30
4814;BME280;15375;48.540;9.268;2023-07-08T04:53:54;97460.47;;;21.93;53.58
4814;BME280;15375;48.540;9.268;2023-07-08T04:56:19;97435.22;;;21.91;52.69
4814;BME280;15375;48.540;9.268;2023-07-08T04:58:45;97471.19;;;22.32;51.61
4814;BME280;15375;48.540;9.268;2023-07-08T05:01:10;97472.56;;;22.73;52.90
4814;BME280;15375;48.540;9.268;2023-07-08T05:03:35;97462.03;;;22.94;55.01
4814;BME280;15375;48.540;9.268;2023-07-08T05:06:01;97487.25;;;23.21;54.83
4814;BME280;15375;48.540;9.268;2023-07-08T05:08:27;97505.25;;;23.31;54.13
4814;BME280;15375;48.540;9.268;2023-07-08T05:10:52;97492.59;;;23.25;52.58
4814;BME280;15375;48.540;9.268;2023-07-08T05:13:17;97513.69;;;23.00;54.01
4814;BME280;15375;48.540;9.268;2023-07-08T05:15:43;97502.88;;;22.45;54.89
4814;BME280;15375;48.540;9.268;2023-07-08T05:18:08;97504.47;;;22.00;54.06
4814;BME280;15375;48.540;9.268;2023-07-08T05:20:33;97490.81;;;21.77;56.33
4814;BME280;15375;48.540;9.268;2023-07-08T05:23:01;97501.66;;;21.75;57.05
4814;BME280;15375;48.540;9.268;2023-07-08T05:25:26;97504.84;;;21.68;58.34
4814;BME280;15375;48.540;9.268;2023-07-08T05:27:52;97500.81;;;21.89;58.65
4814;BME280;15375;48.540;9.268;2023-07-08T05:30:18;97497.72;;;22.33;58.07
4814;BME280;15375;48.540;9.268;2023-07-08T05:32:44;97508.16;;;23.48;54.92
4814;BME280;15375;48.540;9.268;2023-07-08T05:35:10;97502.88;;;24.92;50.81
4814;BME280;15375;48.540;9.268;2023-07-08T05:37:36;97502.00;;;26.05;47.27
4814;BME280;15375;48.540;9.268;2023-07-08T05:40:01;97510.97;;;25.86;47.81
4814;BME280;15375;48.540;9.268;2023-07-08T05:42:27;97506.66;;;25.85;47.83
4814;BME280;15375;48.540;9.268;2023-07-08T05:44:53;97517.91;;;25.69;48.85
4814;BME280;15375;48.540;9.268;2023-07-08T05:47:20;97515.78;;;24.67;50.12
4814;BME280;15375;48.540;9.268;2023-07-08T05:49:46;97511.06;;;23.87;52.51
4814;BME280;15375;48.540;9.268;2023-07-08T05:52:12;97516.22;;;23.40;54.12
4814;BME280;15375;48.540;9.268;2023-07-08T05:54:38;97529.41;;;23.03;55.74
4814;BME280;15375;48.540;9.268;2023-07-08T05:57:05;97516.91;;;22.88;56.45
4814;BME280;15375;48.540;9.268;2023-07-08T05:59:31;97512.94;;;22.68;57.51
4814;BME280;15375;48.540;9.268;2023-07-08T06:01:56;97524.09;;;22.43;58.24
4814;BME280;15375;48.540;9.268;2023-07-08T06:04:21;97519.66;;;22.31;58.60
4814;BME280;15375;48.540;9.268;2023-07-08T06:06:47;97530.91;;;22.42;59.35
4814;BME280;15375;48.540;9.268;2023-07-08T06:09:13;97535.94;;;22.43;57.89
4814;BME280;15375;48.540;9.268;2023-07-08T06:11:38;97533.63;;;22.36;60.94
4814;BME280;15375;48.540;9.268;2023-07-08T06:14:04;97534.28;;;22.25;59.04
4814;BME280;15375;48.540;9.268;2023-07-08T06:16:29;97544.25;;;22.12;58.68
4814;BME280;15375;48.540;9.268;2023-07-08T06:18:56;97536.94;;;22.14;59.63
4814;BME280;15375;48.540;9.268;2023-07-08T06:21:22;97532.09;;;22.09;59.32
4814;BME280;15375;48.540;9.268;2023-07-08T06:23:47;97539.41;;;22.07;59.56
4814;BME280;15375;48.540;9.268;2023-07-08T06:26:13;97538.63;;;22.06;60.10
4814;BME280;15375;48.540;9.268;2023-07-08T06:28:38;97535.66;;;22.10;60.25
4814;BME280;15375;48.540;9.268;2023-07-08T06:31:03;97543.28;;;22.15;61.12
4814;BME280;15375;48.540;9.268;2023-07-08T06:33:29;97562.38;;;22.33;63.20
4814;BME280;15375;48.540;9.268;2023-07-08T06:35:54;97561.91;;;22.35;62.73
4814;BME280;15375;48.540;9.268;2023-07-08T06:38:19;97561.34;;;22.31;61.23
4814;BME280;15375;48.540;9.268;2023-07-08T06:40:45;97562.88;;;22.32;61.73
4814;BME280;15375;48.540;9.268;2023-07-08T06:43:10;97580.91;;;22.42;62.32
4814;BME280;15375;48.540;9.268;2023-07-08T06:45:35;97574.84;;;22.38;62.80
4814;BME280;15375;48.540;9.268;2023-07-08T06:48:01;97577.97;;;22.51;63.65
4814;BME280;15375;48.540;9.268;2023-07-08T06:50:29;97582.34;;;22.57;68.47
4814;BME280;15375;48.540;9.268;2023-07-08T06:52:54;97585.75;;;22.67;68.78
4814;BME280;15375;48.540;9.268;2023-07-08T06:55:19;97555.06;;;22.61;65.99
4814;BME280;15375;48.540;9.268;2023-07-08T06:57:45;97561.84;;;22.80;66.78
4814;BME280;15375;48.540;9.268;2023-07-08T07:00:11;97572.69;;;22.78;65.70
4814;BME280;15375;48.540;9.268;2023-07-08T07:02:37;97540.03;;;22.73;64.34
4814;BME280;15375;48.540;9.268;2023-07-08T07:05:03;97550.78;;;22.92;62.16
4814;BME280;15375;48.540;9.268;2023-07-08T07:07:29;97560.72;;;22.98;61.80
4814;BME280;15375;48.540;9.268;2023-07-08T07:09:54;97548.63;;;23.07;61.08
4814;BME280;15375;48.540;9.268;2023-07-08T07:12:20;97547.22;;;23.22;59.65
4814;BME280;15375;48.540;9.268;2023-07-08T07:14:46;97557.03;;;23.55;59.13
4814;BME280;15375;48.540;9.268;2023-07-08T07:17:11;97558.16;;;23.74;62.08
4814;BME280;15375;48.540;9.268;2023-07-08T07:19:36;97562.31;;;24.06;60.09
4814;BME280;15375;48.540;9.268;2023-07-08T07:22:02;97556.06;;;24.28;56.48
4814;BME280;15375;48.540;9.268;2023-07-08T07:24:28;97579.91;;;24.45;57.28
4814;BME280;15375;48.540;9.268;2023-07-08T07:26:53;97566.00;;;24.56;54.27
4814;BME280;15375;48.540;9.268;2023-07-08T07:29:21;97582.22;;;24.63;52.85
4814;BME280;15375;48.540;9.268;2023-07-08T07:31:47;97568.31;;;24.74;54.40
4814;BME280;15375;48.540;9.268;2023-07-08T07:34:13;97580.00;;;24.84;55.13
4814;BME280;15375;48.540;9.268;2023-07-08T07:36:39;97581.25;;;25.11;54.73
4814;BME280;15375;48.540;9.268;2023-07-08T07:39:05;97578.94;;;25.20;54.10
4814;BME280;15375;48.540;9.268;2023-07-08T07:41:30;97576.66;;;25.19;52.25
4814;BME280;15375;48.540;9.268;2023-07-08T07:43:56;97577.16;;;25.23;53.24
4814;BME280;15375;48.540;9.268;2023-07-08T07:46:22;97565.75;;;25.21;52.45
4814;BME280;15375;48.540;9.268;2023-07-08T07:48:47;97576.66;;;25.24;54.26
4814;BME280;15375;48.540;9.268;2023-07-08T07:51:13;97588.81;;;25.38;54.55
4814;BME280;15375;48.540;9.268;2023-07-08T07:53:39;97595.94;;;25.28;54.52
4814;BME280;15375;48.540;9.268;2023-07-08T07:56:04;97591.16;;;25.12;55.09
4814;BME280;15375;48.540;9.268;2023-07-08T07:58:30;97601.28;;;25.20;54.98
4814;BME280;15375;48.540;9.268;2023-07-08T08:00:56;97593.44;;;25.02;55.50
4814;BME280;15375;48.540;9.268;2023-07-08T08:03:21;97576.94;;;24.88;57.10
4814;BME280;15375;48.540;9.268;2023-07-08T08:05:47;97586.31;;;24.96;58.79
4814;BME280;15375;48.540;9.268;2023-07-08T08:08:13;97569.59;;;24.96;56.24
4814;BME280;15375;48.540;9.268;2023-07-08T08:10:39;97588.38;;;24.90;56.71
4814;BME280;15375;48.540;9.268;2023-07-08T08:13:04;97588.31;;;24.62;58.63
4814;BME280;15375;48.540;9.268;2023-07-08T08:15:30;97598.25;;;24.85;58.73
4814;BME280;15375;48.540;9.268;2023-07-08T08:17:55;97579.50;;;25.02;56.34
4814;BME280;15375;48.540;9.268;2023-07-08T08:20:23;97584.03;;;25.11;55.24
4814;BME280;15375;48.540;9.268;2023-07-08T08:22:50;97582.00;;;25.11;55.66
4814;BME280;15375;48.540;9.268;2023-07-08T08:25:16;97589.88;;;25.24;57.63
4814;BME280;15375;48.540;9.268;2023-07-08T08:27:42;97608.91;;;25.14;58.47
4814;BME280;15375;48.540;9.268;2023-07-08T08:30:09;97599.25;;;25.15;57.43
4814;BME280;15375;48.540;9.268;2023-07-08T08:32:35;97601.03;;;25.24;59.97
4814;BME280;15375;48.540;9.268;2023-07-08T08:35:00;97601.78;;;25.24;58.71
4814;BME280;15375;48.540;9.268;2023-07-08T08:37:25;97591.63;;;25.32;57.34
4814;BME280;15375;48.540;9.268;2023-07-08T08:39:51;97603.03;;;25.57;56.28
4814;BME280;15375;48.540;9.268;2023-07-08T08:42:26;97609.06;;;25.77;54.48
4814;BME280;15375;48.540;9.268;2023-07-08T08:44:52;97611.56;;;25.97;54.54
4814;BME280;15375;48.540;9.268;2023-07-08T08:47:37;97592.84;;;25.70;52.29
4814;BME280;15375;48.540;9.268;2023-07-08T08:50:39;97609.56;;;25.76;51.28
4814;BME280;15375;48.540;9.268;2023-07-08T08:53:11;97579.84;;;25.78;52.60
4814;BME280;15375;48.540;9.268;2023-07-08T08:55:37;97621.19;;;25.96;52.19
4814;BME280;15375;48.540;9.268;2023-07-08T09:03:11;97639.94;;;26.18;51.98
4814;BME280;15375;48.540;9.268;2023-07-08T09:05:38;97638.94;;;26.10;52.23
4814;BME280;15375;48.540;9.268;2023-07-08T09:10:53;97629.25;;;26.11;54.05
4814;BME280;15375;48.540;9.268;2023-07-08T09:13:25;97634.59;;;26.20;50.92
4814;BME280;15375;48.540;9.268;2023-07-08T09:15:59;97624.47;;;26.00;52.09
4814;BME280;15375;48.540;9.268;2023-07-08T09:18:32;97629.03;;;26.04;52.99
4814;BME280;15375;48.540;9.268;2023-07-08T09:21:03;97616.88;;;25.95;53.19
4814;BME280;15375;48.540;9.268;2023-07-08T09:23:33;97620.97;;;25.94;51.21
4814;BME280;15375;48.540;9.268;2023-07-08T09:26:33;97618.97;;;25.78;48.29
4814;BME280;15375;48.540;9.268;2023-07-08T09:28:59;97611.16;;;25.60;49.03
4814;BME280;15375;48.540;9.268;2023-07-08T09:31:27;97629.88;;;25.82;50.16
4814;BME280;15375;48.540;9.268;2023-07-08T09:33:54;97629.66;;;25.80;55.15
4814;BME280;15375;48.540;9.268;2023-07-08T09:36:29;97617.47;;;25.77;53.67
4814;BME280;15375;48.540;9.268;2023-07-08T09:38:54;97619.94;;;25.92;49.56
4814;BME280;15375;48.540;9.268;2023-07-08T09:41:32;97619.94;;;25.92;48.99
4814;BME280;15375;48.540;9.268;2023-07-08T09:44:06;97622.44;;;26.01;52.80
4814;BME280;15375;48.540;9.268;2023-07-08T09:46:36;97628.06;;;25.95;50.09
4814;BME280;15375;48.540;9.268;2023-07-08T09:49:33;97612.56;;;26.00;49.49
4814;BME280;15375;48.540;9.268;2023-07-08T09:51:59;97613.44;;;25.56;49.37
4814;BME280;15375;48.540;9.268;2023-07-08T09:54:25;97614.16;;;25.73;49.33
4814;BME280;15375;48.540;9.268;2023-07-08T09:56:58;97624.53;;;25.89;49.90
4814;BME280;15375;48.540;9.268;2023-07-08T09:59:29;97630.94;;;26.42;48.82
4814;BME280;15375;48.540;9.268;2023-07-08T10:01:59;97622.34;;;26.75;47.56
4814;BME280;15375;48.540;9.268;2023-07-08T10:04:24;97609.50;;;26.55;48.50
4814;BME280;15375;48.540;9.268;2023-07-08T10:06:50;97598.84;;;26.89;47.15
4814;BME280;15375;48.540;9.268;2023-07-08T10:09:20;97613.88;;;27.51;46.71
4814;BME280;15375;48.540;9.268;2023-07-08T10:11:58;97613.34;;;28.01;44.90
4814;BME280;15375;48.540;9.268;2023-07-08T10:14:38;97627.03;;;28.05;45.40
4814;BME280;15375;48.540;9.268;2023-07-08T10:17:13;97616.00;;;28.12;44.86
4814;BME280;15375;48.540;9.268;2023-07-08T10:19:40;97627.78;;;28.48;45.23
4814;BME280;15375;48.540;9.268;2023-07-08T10:28:25;97624.44;;;28.87;43.57
4814;BME280;15375;48.540;9.268;2023-07-08T10:31:30;97625.03;;;29.43;44.78
4814;BME280;15375;48.540;9.268;2023-07-08T10:36:51;97606.59;;;29.74;41.97
4814;BME280;15375;48.540;9.268;2023-07-08T10:39:43;97601.81;;;29.56;42.37
4814;BME280;15375;48.540;9.268;2023-07-08T10:42:26;97605.31;;;30.14;41.42
4814;BME280;15375;48.540;9.268;2023-07-08T10:45:49;97601.09;;;30.21;42.02
4814;BME280;15375;48.540;9.268;2023-07-08T10:56:14;97573.94;;;30.57;39.68
4814;BME280;15375;48.540;9.268;2023-07-08T10:58:52;97590.22;;;31.06;39.59
4814;BME280;15375;48.540;9.268;2023-07-08T11:07:05;97586.28;;;31.78;38.79
4814;BME280;15375;48.540;9.268;2023-07-08T11:09:42;97580.50;;;31.14;38.39
4814;BME280;15375;48.540;9.268;2023-07-08T11:18:13;97586.13;;;31.55;40.84
4814;BME280;15375;48.540;9.268;2023-07-08T11:23:29;97573.38;;;31.62;38.21
4814;BME280;15375;48.540;9.268;2023-07-08T11:28:51;97563.94;;;31.88;38.35
4814;BME280;15375;48.540;9.268;2023-07-08T11:31:18;97558.72;;;31.35;38.10
4814;BME280;15375;48.540;9.268;2023-07-08T11:33:45;97553.00;;;31.48;37.74
4814;BME280;15375;48.540;9.268;2023-07-08T11:36:11;97562.00;;;32.03;39.00
4814;BME280;15375;48.540;9.268;2023-07-08T11:38:50;97557.66;;;32.02;37.79
4814;BME280;15375;48.540;9.268;2023-07-08T11:41:18;97550.72;;;32.03;38.04
4814;BME280;15375;48.540;9.268;2023-07-08T11:43:48;97559.56;;;32.58;38.38
4814;BME280;15375;48.540;9.268;2023-07-08T11:46:26;97549.53;;;31.42;38.21
4814;BME280;15375;48.540;9.268;2023-07-08T11:48:55;97547.22;;;32.26;37.16
4814;BME280;15375;48.540;9.268;2023-07-08T11:51:34;97543.84;;;32.27;36.72
4814;BME280;15375;48.540;9.268;2023-07-08T11:54:02;97540.13;;;31.96;36.87
4814;BME280;15375;48.540;9.268;2023-07-08T11:59:20;97527.47;;;30.84;38.83
4814;BME280;15375;48.540;9.268;2023-07-08T12:02:04;97525.19;;;31.81;37.64
4814;BME280;15375;48.540;9.268;2023-07-08T12:04:56;97527.69;;;32.43;36.82
4814;BME280;15375;48.540;9.268;2023-07-08T12:07:50;97527.50;;;32.41;36.60
4814;BME280;15375;48.540;9.268;2023-07-08T12:10:35;97521.47;;;32.29;36.98
4814;BME280;15375;48.540;9.268;2023-07-08T12:13:12;97528.16;;;32.62;37.36
4814;BME280;15375;48.540;9.268;2023-07-08T12:15:39;97519.38;;;32.22;36.68
4814;BME280;15375;48.540;9.268;2023-07-08T12:18:13;97523.50;;;31.85;37.07
4814;BME280;15375;48.540;9.268;2023-07-08T12:20:40;97524.59;;;32.10;37.17
4814;BME280;15375;48.540;9.268;2023-07-08T12:23:19;97511.00;;;32.52;37.55
4814;BME280;15375;48.540;9.268;2023-07-08T12:25:46;97520.47;;;32.85;37.55
4814;BME280;15375;48.540;9.268;2023-07-08T12:28:12;97520.84;;;33.19;36.10
4814;BME280;15375;48.540;9.268;2023-07-08T12:30:38;97522.72;;;33.24;35.84
4814;BME280;15375;48.540;9.268;2023-07-08T12:33:12;97509.75;;;33.06;35.43
4814;BME280;15375;48.540;9.268;2023-07-08T12:35:40;97508.56;;;32.79;37.33
4814;BME280;15375;48.540;9.268;2023-07-08T12:40:46;97505.59;;;32.11;38.39
4814;BME280;15375;48.540;9.268;2023-07-08T12:43:11;97503.50;;;32.70;37.31
4814;BME280;15375;48.540;9.268;2023-07-08T12:45:37;97512.94;;;33.03;38.63
4814;BME280;15375;48.540;9.268;2023-07-08T12:48:02;97497.63;;;32.68;36.14
4814;BME280;15375;48.540;9.268;2023-07-08T12:50:28;97479.19;;;32.74;36.49
4814;BME280;15375;48.540;9.268;2023-07-08T12:52:54;97476.38;;;32.67;35.80
4814;BME280;15375;48.540;9.268;2023-07-08T12:55:19;97505.78;;;32.21;38.21
4814;BME280;15375;48.540;9.268;2023-07-08T12:57:48;97477.56;;;31.77;37.84
4814;BME280;15375;48.540;9.268;2023-07-08T13:00:30;97498.72;;;32.42;38.19
4814;BME280;15375;48.540;9.268;2023-07-08T13:03:05;97468.00;;;32.24;37.62
4814;BME280;15375;48.540;9.268;2023-07-08T13:05:32;97466.94;;;32.57;37.73
4814;BME280;15375;48.540;9.268;2023-07-08T13:07:58;97483.34;;;33.11;37.42
4814;BME280;15375;48.540;9.268;2023-07-08T13:10:25;97459.44;;;33.05;35.28
4814;BME280;15375;48.540;9.268;2023-07-08T13:12:56;97491.44;;;33.30;35.69
4814;BME280;15375;48.540;9.268;2023-07-08T13:15:36;97486.13;;;33.57;35.23
4814;BME280;15375;48.540;9.268;2023-07-08T13:18:04;97470.53;;;33.03;36.35
4814;BME280;15375;48.540;9.268;2023-07-08T13:20:30;97461.41;;;33.50;36.40
4814;BME280;15375;48.540;9.268;2023-07-08T13:23:01;97472.38;;;34.08;34.87
4814;BME280;15375;48.540;9.268;2023-07-08T13:25:29;97484.63;;;33.63;34.87
4814;BME280;15375;48.540;9.268;2023-07-08T13:28:45;97476.00;;;33.16;35.39
4814;BME280;15375;48.540;9.268;2023-07-08T13:30:57;97475.44;;;31.98;35.50
4814;BME280;15375;48.540;9.268;2023-07-08T13:33:29;97489.09;;;32.38;35.83
4814;BME280;15375;48.540;9.268;2023-07-08T13:35:54;97485.03;;;32.76;35.28
4814;BME280;15375;48.540;9.268;2023-07-08T13:38:23;97485.03;;;32.69;36.89
4814;BME280;15375;48.540;9.268;2023-07-08T13:40:54;97484.66;;;33.25;35.63
4814;BME280;15375;48.540;9.268;2023-07-08T13:43:29;97467.88;;;33.35;33.19
4814;BME280;15375;48.540;9.268;2023-07-08T13:45:56;97481.22;;;33.50;35.13
4814;BME280;15375;48.540;9.268;2023-07-08T13:48:43;97480.94;;;33.85;34.41
4814;BME280;15375;48.540;9.268;2023-07-08T13:51:10;97481.53;;;33.76;34.71
4814;BME280;15375;48.540;9.268;2023-07-08T13:53:46;97486.16;;;33.96;34.89
4814;BME280;15375;48.540;9.268;2023-07-08T13:56:20;97466.84;;;34.18;34.07
4814;BME280;15375;48.540;9.268;2023-07-08T13:58:49;97473.09;;;34.16;33.70
4814;BME280;15375;48.540;9.268;2023-07-08T14:01:22;97472.63;;;33.87;33.47
4814;BME280;15375;48.540;9.268;2023-07-08T14:03:48;97475.75;;;33.59;33.10
4814;BME280;15375;48.540;9.268;2023-07-08T14:06:15;97476.53;;;33.29;33.31
4814;BME280;15375;48.540;9.268;2023-07-08T14:08:40;97460.75;;;33.11;33.45
4814;BME280;15375;48.540;9.268;2023-07-08T14:11:06;97467.28;;;33.36;33.00
4814;BME280;15375;48.540;9.268;2023-07-08T14:13:31;97454.03;;;33.54;33.03